Time;durP1;ratioP1;P1;durP2;ratioP2;P2;SDS_P1;SDS_P2;PMS_P1;PMS_P2;Temp;Humidity;BMP_temperature;BMP_pressure;BME280_temperature;BME280_humidity;BME280_pressure;Samples;Min_cycle;Max_cycle;Signal;HPM_P1;HPM_P2
2023/07/25 00:00:21;;;;;;;;;;;;;;;16.29;89.19;98567.59;6064920;23;19926;-94
2023/07/25 00:07:54;;;;;;;;;;;;;;;16.37;89.83;98563.78;6200735;23;19912;-95
2023/07/25 00:11:31;;;;;;;;;;;;;;;16.47;89.83;98568.66;6207485;23;19935;-94
2023/07/25 00:18:18;;;;;;;;;;;;;;;16.61;88.68;98546.81;6148742;23;19924;-96
2023/07/25 00:27:05;;;;;;;;;;;;;;;16.50;89.13;98548.63;6300135;22;19923;-94
2023/07/25 00:37:57;;;;;;;;;;;;;;;16.51;89.65;98564.00;6302016;22;19923;-96
2023/07/25 00:44:26;;;;;;;;;;;;;;;16.57;88.84;98543.22;6201338;23;19927;-95
2023/07/25 00:46:57;;;;;;;;;;;;;;;16.57;88.82;98542.41;6183328;23;19916;-96
2023/07/25 00:56:43;;;;;;;;;;;;;;;16.43;89.93;98534.72;6250791;22;19904;-94
2023/07/25 01:00:31;;;;;;;;;;;;;;;16.50;89.85;98545.88;6270080;22;19972;-96
2023/07/25 01:03:48;;;;;;;;;;;;;;;16.50;89.38;98536.78;6253391;23;19930;-94
2023/07/25 01:06:39;;;;;;;;;;;;;;;16.50;89.50;98532.06;6240688;23;19915;-96
2023/07/25 01:10:12;;;;;;;;;;;;;;;16.46;89.52;98514.69;6118259;23;19957;-95
2023/07/25 01:12:50;;;;;;;;;;;;;;;16.43;89.76;98509.91;6062439;23;19921;-96
2023/07/25 01:16:24;;;;;;;;;;;;;;;16.35;90.59;98508.19;6117431;23;19906;-95
2023/07/25 01:19:41;;;;;;;;;;;;;;;16.43;90.88;98496.09;6107909;23;19976;-96
2023/07/25 01:22:31;;;;;;;;;;;;;;;16.43;90.68;98496.91;6089762;22;19921;-96
2023/07/25 01:24:57;;;;;;;;;;;;;;;16.42;90.63;98500.00;6213145;22;19923;-96
2023/07/25 01:27:23;;;;;;;;;;;;;;;16.45;91.05;98497.31;6215879;22;19911;-96
2023/07/25 01:30:02;;;;;;;;;;;;;;;16.43;91.06;98507.13;6216775;22;19919;-96
2023/07/25 01:32:54;;;;;;;;;;;;;;;16.37;91.50;98506.66;6221725;22;19965;-94
2023/07/25 01:35:21;;;;;;;;;;;;;;;16.40;91.60;98508.66;6265143;22;20002;-96
2023/07/25 01:37:49;;;;;;;;;;;;;;;16.41;91.58;98492.91;6240055;22;19919;-96
2023/07/25 01:40:50;;;;;;;;;;;;;;;16.38;91.80;98490.91;6215965;22;19923;-95
2023/07/25 01:43:19;;;;;;;;;;;;;;;16.36;91.94;98499.56;6146092;23;19943;-94
2023/07/25 01:45:49;;;;;;;;;;;;;;;16.36;92.22;98504.28;6147519;23;19956;-95
2023/07/25 01:48:57;;;;;;;;;;;;;;;16.38;92.29;98510.19;6149924;23;19924;-96
2023/07/25 01:51:23;;;;;;;;;;;;;;;16.38;92.46;98510.19;6146498;23;19924;-95
2023/07/25 01:54:01;;;;;;;;;;;;;;;16.43;92.37;98507.13;6147000;23;19943;-96
2023/07/25 01:56:27;;;;;;;;;;;;;;;16.45;91.88;98507.53;6148851;23;19920;-96
2023/07/25 01:59:19;;;;;;;;;;;;;;;16.43;91.84;98512.66;6158500;23;19927;-96
2023/07/25 02:02:10;;;;;;;;;;;;;;;16.50;91.88;98520.25;6125720;23;19935;-94
2023/07/25 02:05:04;;;;;;;;;;;;;;;16.55;91.39;98514.38;6146166;23;20004;-94
2023/07/25 02:07:30;;;;;;;;;;;;;;;16.53;91.11;98514.78;6154102;22;19927;-96
2023/07/25 02:10:49;;;;;;;;;;;;;;;16.51;91.13;98532.88;6200128;23;19924;-96
2023/07/25 02:13:27;;;;;;;;;;;;;;;16.51;91.53;98524.59;6232917;23;20304;-96
2023/07/25 02:15:53;;;;;;;;;;;;;;;16.57;91.61;98525.84;6228186;23;19959;-96
2023/07/25 02:18:28;;;;;;;;;;;;;;;16.60;91.21;98509.34;6228027;23;19919;-93
2023/07/25 02:21:51;;;;;;;;;;;;;;;16.63;90.95;98511.38;6238907;22;19972;-93
2023/07/25 02:24:17;;;;;;;;;;;;;;;16.58;91.38;98519.16;6231793;23;19919;-93
2023/07/25 02:26:43;;;;;;;;;;;;;;;16.65;91.26;98514.56;6232113;23;19919;-93
2023/07/25 02:29:09;;;;;;;;;;;;;;;16.60;91.19;98514.09;6231627;23;19942;-94
2023/07/25 02:31:53;;;;;;;;;;;;;;;16.63;91.45;98516.88;6190770;23;19920;-93
2023/07/25 02:37:56;;;;;;;;;;;;;;;16.70;91.37;98521.72;6284613;22;20305;-96
2023/07/25 02:40:51;;;;;;;;;;;;;;;16.72;91.00;98518.56;6291386;22;19985;-96
2023/07/25 02:43:56;;;;;;;;;;;;;;;16.72;90.90;98521.31;6268327;22;19925;-95
2023/07/25 02:50:47;;;;;;;;;;;;;;;16.76;90.72;98539.56;6235300;23;19930;-93
2023/07/25 02:59:19;;;;;;;;;;;;;;;16.81;89.98;98569.59;6357123;22;19902;-94
2023/07/25 03:01:44;;;;;;;;;;;;;;;16.85;90.33;98566.88;6256086;22;19940;-96
2023/07/25 03:04:10;;;;;;;;;;;;;;;16.92;89.76;98564.25;6199444;23;19942;-94
2023/07/25 03:06:36;;;;;;;;;;;;;;;17.03;89.72;98559.66;6201184;23;19949;-95
2023/07/25 03:09:03;;;;;;;;;;;;;;;17.07;89.40;98554.97;6202265;23;19945;-92
2023/07/25 03:11:29;;;;;;;;;;;;;;;17.14;89.69;98549.53;6174953;23;19919;-94
2023/07/25 03:13:54;;;;;;;;;;;;;;;17.18;89.66;98548.78;6251715;23;19926;-95
2023/07/25 03:16:25;;;;;;;;;;;;;;;17.26;89.84;98545.75;6176520;23;19922;-94
2023/07/25 03:19:03;;;;;;;;;;;;;;;17.33;89.59;98556.06;6176508;23;19920;-94
2023/07/25 03:21:55;;;;;;;;;;;;;;;17.41;89.91;98549.44;6178893;23;19922;-95
2023/07/25 03:24:21;;;;;;;;;;;;;;;17.47;89.50;98545.19;6226307;23;19951;-95
2023/07/25 03:26:47;;;;;;;;;;;;;;;17.54;89.49;98542.50;6251821;23;19923;-96
2023/07/25 03:29:39;;;;;;;;;;;;;;;17.54;88.81;98536.97;6204220;23;19920;-95
2023/07/25 03:32:23;;;;;;;;;;;;;;;17.60;88.61;98543.75;6229338;23;19959;-96
2023/07/25 03:34:52;;;;;;;;;;;;;;;17.61;88.24;98536.25;6180815;23;19919;-96
2023/07/25 03:37:17;;;;;;;;;;;;;;;17.66;88.44;98535.13;6205950;23;19927;-96
2023/07/25 03:39:43;;;;;;;;;;;;;;;17.64;88.46;98534.69;6209066;23;19920;-96
2023/07/25 03:42:09;;;;;;;;;;;;;;;17.66;88.68;98546.97;6205418;23;20002;-96
2023/07/25 03:44:48;;;;;;;;;;;;;;;17.65;88.47;98539.88;6233629;23;20002;-95
2023/07/25 03:47:14;;;;;;;;;;;;;;;17.61;88.48;98539.00;6239138;23;19971;-96
2023/07/25 03:50:11;;;;;;;;;;;;;;;17.60;88.65;98545.72;6243903;23;19930;-94
2023/07/25 03:52:36;;;;;;;;;;;;;;;17.58;88.22;98546.13;6229572;23;20385;-95
2023/07/25 03:55:03;;;;;;;;;;;;;;;17.53;88.52;98546.44;6168534;23;19921;-96
2023/07/25 03:58:08;;;;;;;;;;;;;;;17.53;88.74;98538.16;6134288;23;19921;-96
2023/07/25 04:00:59;;;;;;;;;;;;;;;17.64;88.65;98531.94;6105289;23;19921;-96
2023/07/25 04:03:25;;;;;;;;;;;;;;;17.70;88.30;98505.53;6101141;23;19922;-96
2023/07/25 04:05:51;;;;;;;;;;;;;;;17.74;87.76;98525.72;6095688;23;20004;-96
2023/07/25 04:08:17;;;;;;;;;;;;;;;17.72;88.34;98522.56;6101257;23;19973;-95
2023/07/25 04:10:46;;;;;;;;;;;;;;;17.73;88.10;98527.69;6051428;23;19976;-95
2023/07/25 04:13:12;;;;;;;;;;;;;;;17.62;88.30;98529.56;6074144;23;19980;-95
2023/07/25 04:15:38;;;;;;;;;;;;;;;17.68;88.76;98530.81;6125282;23;19992;-95
2023/07/25 04:18:05;;;;;;;;;;;;;;;17.82;89.17;98538.47;6074868;23;20036;-96
2023/07/25 04:20:31;;;;;;;;;;;;;;;17.91;89.65;98535.38;6099617;23;20356;-95
2023/07/25 04:22:58;;;;;;;;;;;;;;;17.99;89.52;98545.34;6102205;23;19921;-96
2023/07/25 04:25:24;;;;;;;;;;;;;;;17.98;89.03;98533.50;6102604;23;20360;-95
2023/07/25 04:27:50;;;;;;;;;;;;;;;18.07;88.96;98528.41;6104794;23;19928;-96
2023/07/25 04:30:15;;;;;;;;;;;;;;;18.10;88.78;98526.88;6087349;23;19955;-95
2023/07/25 04:32:41;;;;;;;;;;;;;;;18.01;87.64;98527.22;6107273;23;20048;-95
2023/07/25 04:35:07;;;;;;;;;;;;;;;18.06;87.94;98523.28;6167911;23;19920;-95
2023/07/25 04:37:33;;;;;;;;;;;;;;;18.14;87.60;98515.81;6188738;23;19920;-95
2023/07/25 04:40:00;;;;;;;;;;;;;;;18.13;87.53;98514.25;6163065;23;19921;-96
2023/07/25 04:42:27;;;;;;;;;;;;;;;18.11;87.30;98511.06;6177671;23;19974;-95
2023/07/25 04:44:53;;;;;;;;;;;;;;;18.19;87.76;98512.72;6203985;23;19974;-96
2023/07/25 04:47:19;;;;;;;;;;;;;;;18.20;87.93;98517.06;6200553;23;19924;-96
2023/07/25 04:49:45;;;;;;;;;;;;;;;18.20;86.92;98512.31;6200308;23;20357;-96
2023/07/25 04:52:14;;;;;;;;;;;;;;;18.26;87.13;98510.00;6174458;23;20375;-95
2023/07/25 04:54:40;;;;;;;;;;;;;;;18.18;86.99;98505.59;6177925;23;19919;-95
2023/07/25 04:57:06;;;;;;;;;;;;;;;18.25;87.12;98505.66;6229248;23;19922;-93
2023/07/25 04:59:32;;;;;;;;;;;;;;;18.31;86.76;98504.13;6178604;23;19923;-93
2023/07/25 05:01:58;;;;;;;;;;;;;;;18.41;87.03;98499.81;6201123;23;19998;-95
2023/07/25 05:04:42;;;;;;;;;;;;;;;18.51;86.85;98499.91;6194619;23;19920;-95
2023/07/25 05:07:07;;;;;;;;;;;;;;;18.62;87.13;98502.72;6198237;23;19920;-95
2023/07/25 05:09:33;;;;;;;;;;;;;;;18.75;86.57;98511.53;6145361;23;20431;-94
2023/07/25 05:11:59;;;;;;;;;;;;;;;18.83;84.50;98504.84;6198686;23;20368;-94
2023/07/25 05:14:25;;;;;;;;;;;;;;;18.78;84.61;98506.03;6170564;23;19927;-94
2023/07/25 05:16:51;;;;;;;;;;;;;;;18.80;84.66;98502.84;6220632;23;19950;-95
2023/07/25 05:19:16;;;;;;;;;;;;;;;18.84;84.62;98513.94;6218678;23;20476;-95
2023/07/25 05:21:42;;;;;;;;;;;;;;;18.86;84.47;98504.06;6194772;23;19951;-95
2023/07/25 05:24:08;;;;;;;;;;;;;;;18.89;84.18;98516.34;6172580;23;19939;-94
2023/07/25 05:26:34;;;;;;;;;;;;;;;18.91;83.42;98514.78;6200235;23;19920;-96
2023/07/25 05:28:59;;;;;;;;;;;;;;;18.93;82.98;98515.19;6201717;23;19951;-94
2023/07/25 05:31:26;;;;;;;;;;;;;;;19.06;84.28;98528.69;6222460;23;19926;-96
2023/07/25 05:33:52;;;;;;;;;;;;;;;19.14;83.49;98530.31;6225832;23;19923;-94
2023/07/25 05:36:18;;;;;;;;;;;;;;;19.32;83.05;98538.69;6202078;23;19922;-92
2023/07/25 05:38:45;;;;;;;;;;;;;;;19.40;82.48;98524.50;6181917;23;19970;-94
2023/07/25 05:41:37;;;;;;;;;;;;;;;19.39;80.82;98525.66;6183049;23;19919;-93
2023/07/25 05:44:41;;;;;;;;;;;;;;;19.42;80.92;98516.56;6204740;23;19919;-94
2023/07/25 05:47:07;;;;;;;;;;;;;;;19.39;79.78;98509.03;6205873;23;20334;-95
2023/07/25 05:49:43;;;;;;;;;;;;;;;19.45;80.83;98512.22;6255709;23;19919;-94
2023/07/25 05:52:09;;;;;;;;;;;;;;;19.41;80.64;98508.66;6259953;22;19931;-94
2023/07/25 05:54:36;;;;;;;;;;;;;;;19.46;81.56;98511.81;6214167;23;19900;-94
2023/07/25 05:57:02;;;;;;;;;;;;;;;19.47;80.78;98518.19;6231941;23;19919;-96
2023/07/25 05:59:28;;;;;;;;;;;;;;;19.59;81.46;98519.78;6204639;23;19965;-95
2023/07/25 06:01:55;;;;;;;;;;;;;;;19.64;80.83;98523.00;6177583;23;19920;-95
2023/07/25 06:04:22;;;;;;;;;;;;;;;19.69;81.24;98524.56;6171129;23;19951;-96
2023/07/25 06:06:48;;;;;;;;;;;;;;;;;;6227257;23;19920;-93
2023/07/25 06:09:14;;;;;;;;;;;;;;;19.63;79.25;98506.69;6197188;23;19922;-92
2023/07/25 06:11:42;;;;;;;;;;;;;;;;;;6248198;23;19934;-93
2023/07/25 06:14:08;;;;;;;;;;;;;;;19.83;78.85;98529.34;6199655;23;19916;-95
2023/07/25 06:16:34;;;;;;;;;;;;;;;19.93;76.97;98520.25;6200957;23;19919;-90
2023/07/25 06:19:01;;;;;;;;;;;;;;;19.99;77.44;98528.97;6224376;23;19926;-92
2023/07/25 06:21:26;;;;;;;;;;;;;;;20.07;76.98;98530.56;6194084;23;20346;-92
2023/07/25 06:23:52;;;;;;;;;;;;;;;20.23;77.00;98530.16;6170323;23;19931;-89
2023/07/25 06:26:18;;;;;;;;;;;;;;;20.40;74.47;98541.28;6196484;23;19927;-91
2023/07/25 06:28:44;;;;;;;;;;;;;;;20.51;75.40;98532.97;6203207;23;19916;-95
2023/07/25 06:31:10;;;;;;;;;;;;;;;20.59;74.08;98530.94;6231645;23;19919;-92
2023/07/25 06:33:42;;;;;;;;;;;;;;;20.69;73.62;98527.38;6174346;23;19960;-95
2023/07/25 06:36:08;;;;;;;;;;;;;;;20.73;71.21;98533.72;6177991;23;19935;-92
2023/07/25 06:38:34;;;;;;;;;;;;;;;20.77;71.85;98537.28;6221059;23;19926;-91
2023/07/25 06:41:28;;;;;;;;;;;;;;;20.86;72.01;98528.50;6220091;23;20407;-91
2023/07/25 06:44:15;;;;;;;;;;;;;;;20.83;71.27;98535.69;6220244;23;20003;-95
2023/07/25 06:50:17;;;;;;;;;;;;;;;21.05;70.95;98538.38;6223839;23;19930;-91
2023/07/25 06:52:43;;;;;;;;;;;;;;;21.32;69.57;98533.09;6141111;23;19970;-87
2023/07/25 06:55:09;;;;;;;;;;;;;;;21.33;68.18;98545.84;6191248;23;19920;-86
2023/07/25 06:57:35;;;;;;;;;;;;;;;21.43;69.38;98544.22;6189024;23;19920;-86
2023/07/25 07:00:01;;;;;;;;;;;;;;;21.79;68.10;98542.84;6188749;23;19995;-87
2023/07/25 07:02:26;;;;;;;;;;;;;;;22.23;66.24;98546.13;6268655;22;20261;-87
2023/07/25 07:04:52;;;;;;;;;;;;;;;22.24;65.65;98542.91;6202500;22;19967;-89
2023/07/25 07:07:20;;;;;;;;;;;;;;;22.56;64.88;98541.84;6226287;22;20314;-89
2023/07/25 07:09:47;;;;;;;;;;;;;;;22.78;64.95;98544.41;6226482;22;19973;-89
2023/07/25 07:12:14;;;;;;;;;;;;;;;22.78;63.76;98548.00;6227825;22;19918;-88
2023/07/25 07:14:41;;;;;;;;;;;;;;;22.94;63.84;98542.66;6277470;22;20342;-88
2023/07/25 07:17:07;;;;;;;;;;;;;;;23.29;62.85;98549.03;6226391;22;19986;-88
2023/07/25 07:19:33;;;;;;;;;;;;;;;23.34;61.62;98545.78;6193473;23;19954;-89
2023/07/25 07:21:58;;;;;;;;;;;;;;;23.50;61.10;98541.59;6168947;23;19920;-80
2023/07/25 07:24:24;;;;;;;;;;;;;;;23.93;60.02;98539.03;6244570;23;19927;-80
2023/07/25 07:26:50;;;;;;;;;;;;;;;23.95;59.04;98538.63;6244511;23;19919;-83
2023/07/25 07:29:15;;;;;;;;;;;;;;;24.12;59.27;98549.50;6244502;23;19976;-84
2023/07/25 07:31:41;;;;;;;;;;;;;;;23.99;58.69;98547.72;6244655;23;19919;-84
2023/07/25 07:34:15;;;;;;;;;;;;;;;23.99;58.35;98554.09;6241457;23;19927;-80
2023/07/25 07:36:41;;;;;;;;;;;;;;;24.00;58.16;98555.66;6241662;23;19957;-82
2023/07/25 07:39:07;;;;;;;;;;;;;;;24.10;57.27;98542.75;6238838;23;19930;-83
2023/07/25 07:41:33;;;;;;;;;;;;;;;24.01;57.63;98553.69;6242690;23;20300;-78
2023/07/25 07:44:00;;;;;;;;;;;;;;;23.72;57.90;98558.91;6242956;23;19919;-79
2023/07/25 07:46:28;;;;;;;;;;;;;;;23.56;58.51;98551.88;6243155;23;19919;-80
2023/07/25 07:48:54;;;;;;;;;;;;;;;23.43;59.11;98550.88;6243443;23;19939;-83
2023/07/25 07:51:20;;;;;;;;;;;;;;;23.59;58.79;98553.84;6243736;23;20488;-82
2023/07/25 07:53:45;;;;;;;;;;;;;;;23.94;58.54;98545.41;6242151;23;19915;-79
2023/07/25 07:56:12;;;;;;;;;;;;;;;24.28;57.62;98543.28;6243192;23;19926;-82
2023/07/25 07:58:38;;;;;;;;;;;;;;;24.44;57.51;98547.44;6243447;23;20011;-79
2023/07/25 08:01:03;;;;;;;;;;;;;;;24.53;57.96;98550.47;6243400;23;19947;-83
2023/07/25 08:03:29;;;;;;;;;;;;;;;24.10;57.90;98556.72;6244011;23;19923;-81
2023/07/25 08:05:56;;;;;;;;;;;;;;;23.90;58.50;98549.03;6243496;23;20353;-82
2023/07/25 08:08:22;;;;;;;;;;;;;;;23.88;58.73;98553.47;6243270;23;19920;-82
2023/07/25 08:10:47;;;;;;;;;;;;;;;23.87;58.68;98551.88;6243267;23;20376;-85
2023/07/25 08:13:13;;;;;;;;;;;;;;;24.12;58.25;98545.94;6243250;23;19923;-82
2023/07/25 08:15:39;;;;;;;;;;;;;;;24.13;57.09;98550.28;6243170;23;20350;-82
2023/07/25 08:18:05;;;;;;;;;;;;;;;24.10;57.68;98542.75;6242832;23;20391;-83
2023/07/25 08:20:30;;;;;;;;;;;;;;;24.28;57.99;98550.88;6243916;23;19993;-83
2023/07/25 08:22:56;;;;;;;;;;;;;;;24.39;56.84;98540.28;6242935;23;19920;-82
2023/07/25 08:25:22;;;;;;;;;;;;;;;24.28;56.87;98537.69;6243068;23;20010;-86
2023/07/25 08:27:47;;;;;;;;;;;;;;;24.50;57.35;98552.13;6243159;23;19920;-83
2023/07/25 08:30:13;;;;;;;;;;;;;;;24.42;55.28;98547.84;6215874;23;20010;-81
2023/07/25 08:32:40;;;;;;;;;;;;;;;24.31;57.24;98550.03;6215887;23;19920;-81
2023/07/25 08:35:06;;;;;;;;;;;;;;;24.34;57.43;98546.38;6243158;23;20403;-82
2023/07/25 08:37:32;;;;;;;;;;;;;;;24.65;57.59;98551.88;6244389;23;19930;-93
2023/07/25 08:39:58;;;;;;;;;;;;;;;24.80;56.68;98553.16;6214716;23;20449;-88
2023/07/25 08:42:25;;;;;;;;;;;;;;;24.73;56.07;98545.69;6245305;23;19943;-94
2023/07/25 08:44:54;;;;;;;;;;;;;;;24.83;55.63;98560.69;6244288;23;20207;-86
2023/07/25 08:47:27;;;;;;;;;;;;;;;24.72;55.86;98549.72;6215186;23;20396;-84
2023/07/25 08:49:56;;;;;;;;;;;;;;;24.66;54.87;98553.44;6216166;23;19920;-86
2023/07/25 08:52:25;;;;;;;;;;;;;;;24.69;53.11;98552.56;6215561;23;19924;-84
2023/07/25 08:54:50;;;;;;;;;;;;;;;24.65;54.41;98560.25;6242835;23;19930;-84
2023/07/25 08:57:18;;;;;;;;;;;;;;;24.71;55.05;98564.13;6240945;23;20350;-86
2023/07/25 08:59:50;;;;;;;;;;;;;;;24.80;55.20;98559.56;6190985;23;20389;-82
2023/07/25 09:02:16;;;;;;;;;;;;;;;24.79;54.85;98562.78;6242766;23;19920;-87
2023/07/25 09:04:43;;;;;;;;;;;;;;;24.80;54.67;98550.38;6215905;23;20010;-86
2023/07/25 09:07:09;;;;;;;;;;;;;;;24.73;54.59;98559.66;6242815;23;19927;-82
2023/07/25 09:09:35;;;;;;;;;;;;;;;24.64;54.43;98561.47;6242539;23;19925;-81
2023/07/25 09:12:01;;;;;;;;;;;;;;;24.64;54.50;98564.25;6242860;23;20022;-82
2023/07/25 09:14:27;;;;;;;;;;;;;;;24.57;54.35;98557.56;6242564;23;19920;-82
2023/07/25 09:16:53;;;;;;;;;;;;;;;24.65;54.42;98557.44;6242637;23;19930;-81
2023/07/25 09:19:19;;;;;;;;;;;;;;;24.55;54.38;98562.00;6215593;23;20356;-83
2023/07/25 09:21:53;;;;;;;;;;;;;;;24.35;54.12;98567.50;6242042;23;19920;-84
2023/07/25 09:24:19;;;;;;;;;;;;;;;24.31;54.51;98564.78;6242485;23;19920;-83
2023/07/25 09:26:49;;;;;;;;;;;;;;;24.48;54.09;98553.75;6242475;23;19920;-84
2023/07/25 09:29:15;;;;;;;;;;;;;;;24.63;54.18;98557.84;6242575;23;20493;-82
2023/07/25 09:31:45;;;;;;;;;;;;;;;24.78;54.42;98555.63;6215776;23;19982;-85
2023/07/25 09:34:15;;;;;;;;;;;;;;;24.70;54.77;98552.16;6242315;23;19973;-86
2023/07/25 09:36:44;;;;;;;;;;;;;;;24.87;54.71;98541.06;6215995;23;20507;-85
2023/07/25 09:39:09;;;;;;;;;;;;;;;24.96;53.94;98538.50;6239759;23;19919;-86
2023/07/25 09:41:35;;;;;;;;;;;;;;;24.75;53.30;98522.94;6242321;23;19998;-82
2023/07/25 09:44:05;;;;;;;;;;;;;;;24.87;54.39;98532.66;6242923;23;19927;-90
2023/07/25 09:46:32;;;;;;;;;;;;;;;24.99;54.14;98532.03;6242492;23;19946;-86
2023/07/25 09:48:58;;;;;;;;;;;;;;;24.97;53.84;98529.69;6242377;23;20338;-86
2023/07/25 09:51:25;;;;;;;;;;;;;;;24.88;53.98;98543.44;6215992;23;19930;-87
2023/07/25 09:53:52;;;;;;;;;;;;;;;24.87;54.92;98535.47;6242727;23;19916;-89
2023/07/25 09:56:27;;;;;;;;;;;;;;;24.89;53.53;98536.63;6243055;23;20562;-85
2023/07/25 09:58:57;;;;;;;;;;;;;;;24.78;53.86;98531.25;6242775;23;20341;-91
2023/07/25 10:01:23;;;;;;;;;;;;;;;24.64;54.35;98530.72;6248887;22;19924;-85
2023/07/25 10:03:52;;;;;;;;;;;;;;;24.71;54.45;98536.97;6266616;22;20364;-80
2023/07/25 10:06:18;;;;;;;;;;;;;;;24.77;54.49;98537.28;6240449;23;19997;-87
2023/07/25 10:08:45;;;;;;;;;;;;;;;24.65;54.54;98526.72;6215927;23;19919;-85
2023/07/25 10:11:13;;;;;;;;;;;;;;;24.61;54.33;98526.78;6242099;23;20080;-85
2023/07/25 10:13:43;;;;;;;;;;;;;;;24.76;54.38;98521.69;6215255;23;19965;-86
2023/07/25 10:16:14;;;;;;;;;;;;;;;24.90;54.52;98524.25;6241680;23;19919;-86
2023/07/25 10:18:40;;;;;;;;;;;;;;;25.04;54.66;98525.97;6242149;23;19947;-85
2023/07/25 10:21:08;;;;;;;;;;;;;;;25.10;53.79;98527.03;6241960;23;19920;-86
2023/07/25 10:23:35;;;;;;;;;;;;;;;25.16;53.02;98528.13;6215271;23;19924;-85
2023/07/25 10:26:14;;;;;;;;;;;;;;;25.10;52.46;98541.03;6241790;23;19920;-87
2023/07/25 10:28:41;;;;;;;;;;;;;;;25.09;53.29;98537.41;6214778;23;20373;-86
2023/07/25 10:31:07;;;;;;;;;;;;;;;25.01;52.13;98535.22;6215355;23;19919;-85
2023/07/25 10:33:38;;;;;;;;;;;;;;;25.00;52.91;98537.22;6240028;23;19919;-85
2023/07/25 10:36:04;;;;;;;;;;;;;;;25.11;53.16;98527.84;6215410;23;19935;-87
2023/07/25 10:38:33;;;;;;;;;;;;;;;25.16;52.89;98522.53;6240738;23;19919;-87
2023/07/25 10:41:00;;;;;;;;;;;;;;;25.18;52.79;98530.50;6241631;23;19920;-85
2023/07/25 10:43:51;;;;;;;;;;;;;;;25.14;52.57;98532.59;6241284;23;19919;-84
2023/07/25 10:46:18;;;;;;;;;;;;;;;25.17;52.41;98518.53;6241605;23;19942;-83
2023/07/25 10:48:53;;;;;;;;;;;;;;;25.21;52.64;98516.44;6215029;23;19920;-83
2023/07/25 10:51:21;;;;;;;;;;;;;;;25.30;51.62;98518.69;6241698;23;20402;-81
2023/07/25 10:54:10;;;;;;;;;;;;;;;25.32;52.15;98524.59;6241678;23;20274;-84
2023/07/25 10:56:39;;;;;;;;;;;;;;;25.45;51.35;98525.53;6241556;23;20007;-84
2023/07/25 10:59:07;;;;;;;;;;;;;;;25.25;52.15;98522.75;6241489;23;19938;-81
2023/07/25 11:01:38;;;;;;;;;;;;;;;25.13;51.95;98525.41;6268477;22;19924;-81
2023/07/25 11:04:19;;;;;;;;;;;;;;;25.29;52.61;98523.47;6245197;23;19972;-84
2023/07/25 11:06:45;;;;;;;;;;;;;;;25.54;52.24;98522.16;6244070;23;19920;-89
2023/07/25 11:09:13;;;;;;;;;;;;;;;25.69;51.46;98520.59;6217350;23;19919;-82
2023/07/25 11:11:44;;;;;;;;;;;;;;;25.74;51.22;98541.69;6245031;23;19934;-80
2023/07/25 11:14:17;;;;;;;;;;;;;;;25.77;51.23;98532.44;6244906;23;19919;-80
2023/07/25 11:16:44;;;;;;;;;;;;;;;25.84;50.97;98531.50;6244766;23;19924;-81
2023/07/25 11:19:11;;;;;;;;;;;;;;;25.88;51.19;98538.59;6268171;22;19942;-83
2023/07/25 11:21:44;;;;;;;;;;;;;;;25.86;51.25;98540.25;6244728;23;20337;-83
2023/07/25 11:24:12;;;;;;;;;;;;;;;25.70;51.60;98530.59;6244940;23;19958;-81
2023/07/25 11:26:38;;;;;;;;;;;;;;;25.72;51.75;98525.31;6245087;23;20349;-81
2023/07/25 11:29:08;;;;;;;;;;;;;;;25.71;52.05;98531.38;6244415;23;19926;-81
2023/07/25 11:31:36;;;;;;;;;;;;;;;25.74;52.72;98530.50;6244659;23;19919;-82
2023/07/25 11:34:13;;;;;;;;;;;;;;;25.73;53.59;98535.31;6244729;23;19927;-84
2023/07/25 11:36:40;;;;;;;;;;;;;;;25.78;52.71;98531.19;6244985;23;19947;-89
2023/07/25 11:39:08;;;;;;;;;;;;;;;25.78;53.00;98518.00;6217813;23;20553;-87
2023/07/25 11:41:35;;;;;;;;;;;;;;;25.73;52.62;98518.53;6244575;23;20479;-80
2023/07/25 11:44:10;;;;;;;;;;;;;;;25.66;52.05;98520.69;6244824;23;19919;-82
2023/07/25 11:46:37;;;;;;;;;;;;;;;25.62;52.14;98511.56;6245030;23;19931;-86
2023/07/25 11:49:03;;;;;;;;;;;;;;;25.58;52.21;98510.88;6244345;23;19924;-87
2023/07/25 11:51:30;;;;;;;;;;;;;;;25.62;52.50;98511.56;6216836;23;19968;-84
2023/07/25 11:53:56;;;;;;;;;;;;;;;25.57;52.51;98512.09;6244704;23;20401;-84
2023/07/25 11:56:23;;;;;;;;;;;;;;;25.47;52.65;98517.50;6244244;23;19924;-80
2023/07/25 11:58:49;;;;;;;;;;;;;;;25.54;52.83;98508.16;6245036;23;19919;-81
2023/07/25 12:01:17;;;;;;;;;;;;;;;25.48;52.32;98510.66;6240936;23;19923;-80
2023/07/25 12:03:47;;;;;;;;;;;;;;;25.47;52.04;98511.13;6244482;23;19955;-79
2023/07/25 12:06:13;;;;;;;;;;;;;;;25.48;52.27;98495.91;6244793;23;19920;-79
2023/07/25 12:08:43;;;;;;;;;;;;;;;25.48;52.52;98507.09;6244569;23;19922;-80
2023/07/25 12:11:10;;;;;;;;;;;;;;;25.51;52.82;98495.81;6217530;23;19943;-82
2023/07/25 12:13:46;;;;;;;;;;;;;;;25.42;53.00;98498.41;6244862;23;19922;-80
2023/07/25 12:16:31;;;;;;;;;;;;;;;25.44;52.58;98495.19;6244492;23;19931;-79
2023/07/25 12:19:01;;;;;;;;;;;;;;;25.42;52.32;98490.00;6218298;23;19927;-84
2023/07/25 12:21:29;;;;;;;;;;;;;;;25.48;52.13;98495.91;6217655;23;19942;-82
2023/07/25 12:24:00;;;;;;;;;;;;;;;25.42;52.16;98494.81;6244314;23;19920;-83
2023/07/25 12:26:26;;;;;;;;;;;;;;;25.36;52.30;98500.13;6217196;23;19941;-82
2023/07/25 12:28:52;;;;;;;;;;;;;;;25.40;52.23;98489.69;6246019;23;19973;-84
2023/07/25 12:31:18;;;;;;;;;;;;;;;25.47;52.62;98492.31;6246357;23;20300;-82
2023/07/25 12:33:45;;;;;;;;;;;;;;;25.51;52.34;98495.03;6244341;23;19969;-81
2023/07/25 12:36:11;;;;;;;;;;;;;;;25.51;52.64;98490.22;6246561;23;19920;-81
2023/07/25 12:38:37;;;;;;;;;;;;;;;25.54;52.96;98485.78;6246362;23;19923;-82
2023/07/25 12:41:03;;;;;;;;;;;;;;;25.50;51.95;98499.06;6219744;23;19924;-84
2023/07/25 12:43:29;;;;;;;;;;;;;;;25.43;52.04;98493.59;6247005;23;20325;-84
2023/07/25 12:45:55;;;;;;;;;;;;;;;25.46;51.49;98496.34;6244014;23;19947;-85
2023/07/25 12:48:21;;;;;;;;;;;;;;;25.59;51.45;98498.44;6243813;23;19947;-82
2023/07/25 12:50:47;;;;;;;;;;;;;;;25.73;50.87;98493.31;6246314;23;19989;-80
2023/07/25 12:53:13;;;;;;;;;;;;;;;25.68;51.13;98493.03;6246131;23;19923;-79
2023/07/25 12:55:38;;;;;;;;;;;;;;;25.80;51.34;98489.59;6246466;23;19919;-86
2023/07/25 12:58:04;;;;;;;;;;;;;;;25.91;50.72;98484.53;6245975;23;19926;-86
2023/07/25 13:00:30;;;;;;;;;;;;;;;25.97;50.59;98488.38;6219007;23;20354;-82
2023/07/25 13:02:56;;;;;;;;;;;;;;;25.71;50.98;98489.38;6245926;23;19923;-83
2023/07/25 13:05:22;;;;;;;;;;;;;;;25.66;50.73;98487.09;6246466;23;19985;-85
2023/07/25 13:07:48;;;;;;;;;;;;;;;25.64;50.47;98483.94;6219139;23;19926;-85
2023/07/25 13:10:14;;;;;;;;;;;;;;;25.62;50.23;98483.59;6246398;23;19916;-85
2023/07/25 13:12:40;;;;;;;;;;;;;;;25.62;50.13;98483.59;6246221;23;19920;-83
2023/07/25 13:15:07;;;;;;;;;;;;;;;25.50;49.99;98476.69;6246119;23;20267;-84
2023/07/25 13:17:33;;;;;;;;;;;;;;;25.45;51.50;98486.34;6245698;23;19997;-88
2023/07/25 13:20:04;;;;;;;;;;;;;;;25.41;50.74;98484.88;6247205;23;19994;-85
2023/07/25 13:22:30;;;;;;;;;;;;;;;25.36;50.43;98488.16;6246334;23;19939;-85
2023/07/25 13:24:56;;;;;;;;;;;;;;;25.37;50.73;98475.75;6244768;23;20345;-85
2023/07/25 13:27:26;;;;;;;;;;;;;;;25.48;50.43;98477.09;6247145;23;19947;-83
2023/07/25 13:29:52;;;;;;;;;;;;;;;25.50;50.41;98466.25;6246000;23;19942;-84
2023/07/25 13:32:18;;;;;;;;;;;;;;;25.52;50.74;98477.00;6244409;23;19955;-83
2023/07/25 13:34:44;;;;;;;;;;;;;;;25.45;50.80;98480.75;6245875;23;19919;-82
2023/07/25 13:37:10;;;;;;;;;;;;;;;25.60;50.58;98481.25;6244296;23;19920;-85
2023/07/25 13:39:36;;;;;;;;;;;;;;;25.60;50.52;98481.25;6219124;23;20546;-84
2023/07/25 13:42:01;;;;;;;;;;;;;;;25.68;50.24;98476.25;6219110;23;19965;-81
2023/07/25 13:44:27;;;;;;;;;;;;;;;25.76;49.89;98474.84;6218780;23;19919;-83
2023/07/25 13:46:53;;;;;;;;;;;;;;;25.76;50.28;98472.84;6244701;23;19919;-83
2023/07/25 13:49:19;;;;;;;;;;;;;;;25.73;50.43;98478.53;6243982;23;19950;-84
2023/07/25 13:51:46;;;;;;;;;;;;;;;25.70;50.07;98463.41;6245316;23;19919;-82
2023/07/25 13:54:12;;;;;;;;;;;;;;;25.70;49.91;98469.00;6245473;23;19961;-83
2023/07/25 13:56:38;;;;;;;;;;;;;;;25.59;50.07;98468.44;6218881;23;19920;-84
2023/07/25 13:59:04;;;;;;;;;;;;;;;25.51;50.25;98467.81;6219064;23;19926;-84